Terminal Aerodrome Forecast
Issued by NWS

Home | Current Version | Previous Version | Text Only | Print | Product List | Glossary On
Versions: 1 2 3 4 5 6 7 8 9 10 11 12 13 14 15 16 17 18 19 20 21 22 23 24
250
FTUS44 KOUN 241720
TAFPNC
TAF
KPNC 241720Z 2418/2518 17012G17KT P6SM SCT025 OVC030
     FM242100 17015G24KT P6SM OVC030
      TEMPO 2421/2501 5SM -TSRA BR OVC019CB
     FM250100 16012G20KT 5SM -TSRA BR OVC015CB
     FM250600 18009G15KT P6SM OVC019
      TEMPO 2506/2509 5SM -TSRA BR OVC015CB=

USA.gov is the U.S. government's official web portal to all federal, state and local government web resources and services.